sensor_id;sensor_type;location;lat;lon;timestamp;pressure;altitude;pressure_sealevel;temperature;humidity
27358;BME280;14831;50.474;7.616;2023-08-21T00:01:49;98830;;;19.4;90.1
27358;BME280;14831;50.474;7.616;2023-08-21T00:06:49;98840;;;19.4;90.5
27358;BME280;14831;50.474;7.616;2023-08-21T00:11:49;98840;;;19.3;90.3
27358;BME280;14831;50.474;7.616;2023-08-21T00:16:49;98840;;;19.3;90.6
27358;BME280;14831;50.474;7.616;2023-08-21T00:21:49;98830;;;19.4;90.7
27358;BME280;14831;50.474;7.616;2023-08-21T00:26:49;98830;;;19.4;90.6
27358;BME280;14831;50.474;7.616;2023-08-21T00:31:49;98830;;;19.4;90.4
27358;BME280;14831;50.474;7.616;2023-08-21T00:36:49;98830;;;19.5;90.6
27358;BME280;14831;50.474;7.616;2023-08-21T00:41:49;98830;;;19.4;90.5
27358;BME280;14831;50.474;7.616;2023-08-21T00:46:49;98820;;;19.4;90.4
27358;BME280;14831;50.474;7.616;2023-08-21T00:51:49;98820;;;19.5;90.2
27358;BME280;14831;50.474;7.616;2023-08-21T00:56:49;98830;;;19.5;90.0
27358;BME280;14831;50.474;7.616;2023-08-21T01:01:49;98830;;;19.5;90.0
27358;BME280;14831;50.474;7.616;2023-08-21T01:06:49;98820;;;19.5;90.0
27358;BME280;14831;50.474;7.616;2023-08-21T01:11:49;98820;;;19.5;89.9
27358;BME280;14831;50.474;7.616;2023-08-21T01:16:49;98830;;;19.5;89.9
27358;BME280;14831;50.474;7.616;2023-08-21T01:21:49;98830;;;19.4;90.5
27358;BME280;14831;50.474;7.616;2023-08-21T01:26:49;98830;;;19.3;90.5
27358;BME280;14831;50.474;7.616;2023-08-21T01:31:50;98840;;;19.1;91.2
27358;BME280;14831;50.474;7.616;2023-08-21T01:36:49;98840;;;19.0;92.1
27358;BME280;14831;50.474;7.616;2023-08-21T01:41:49;98840;;;19.0;92.4
27358;BME280;14831;50.474;7.616;2023-08-21T01:46:49;98850;;;18.9;92.7
27358;BME280;14831;50.474;7.616;2023-08-21T01:51:49;98840;;;18.7;92.9
27358;BME280;14831;50.474;7.616;2023-08-21T01:56:49;98840;;;18.6;93.6
27358;BME280;14831;50.474;7.616;2023-08-21T02:01:49;98840;;;18.5;94.3
27358;BME280;14831;50.474;7.616;2023-08-21T02:06:49;98830;;;18.3;94.4
27358;BME280;14831;50.474;7.616;2023-08-21T02:11:49;98830;;;18.2;95.0
27358;BME280;14831;50.474;7.616;2023-08-21T02:16:49;98830;;;18.2;95.3
27358;BME280;14831;50.474;7.616;2023-08-21T02:21:49;98830;;;18.2;95.6
27358;BME280;14831;50.474;7.616;2023-08-21T02:26:49;98830;;;18.2;95.5
27358;BME280;14831;50.474;7.616;2023-08-21T02:31:49;98820;;;18.2;96.0
27358;BME280;14831;50.474;7.616;2023-08-21T02:36:49;98820;;;18.2;95.8
27358;BME280;14831;50.474;7.616;2023-08-21T02:41:49;98820;;;18.1;95.5
27358;BME280;14831;50.474;7.616;2023-08-21T02:46:49;98820;;;18.2;95.8
27358;BME280;14831;50.474;7.616;2023-08-21T02:51:49;98820;;;18.1;95.9
27358;BME280;14831;50.474;7.616;2023-08-21T02:56:49;98820;;;18.1;95.8
27358;BME280;14831;50.474;7.616;2023-08-21T03:01:49;98820;;;18.0;95.6
27358;BME280;14831;50.474;7.616;2023-08-21T03:06:49;98820;;;18.0;95.8
27358;BME280;14831;50.474;7.616;2023-08-21T03:11:49;98820;;;17.9;95.7
27358;BME280;14831;50.474;7.616;2023-08-21T03:16:49;98820;;;17.9;95.7
27358;BME280;14831;50.474;7.616;2023-08-21T03:21:49;98820;;;17.9;95.8
27358;BME280;14831;50.474;7.616;2023-08-21T03:26:49;98820;;;17.8;95.8
27358;BME280;14831;50.474;7.616;2023-08-21T03:31:49;98810;;;17.9;96.1
27358;BME280;14831;50.474;7.616;2023-08-21T03:36:49;98810;;;17.9;96.3
27358;BME280;14831;50.474;7.616;2023-08-21T03:41:49;98820;;;17.9;96.1
27358;BME280;14831;50.474;7.616;2023-08-21T03:46:49;98810;;;17.8;96.1
27358;BME280;14831;50.474;7.616;2023-08-21T03:51:49;98820;;;17.8;96.0
27358;BME280;14831;50.474;7.616;2023-08-21T03:56:49;98820;;;17.8;96.0
27358;BME280;14831;50.474;7.616;2023-08-21T04:01:49;98810;;;17.7;95.9
27358;BME280;14831;50.474;7.616;2023-08-21T04:06:49;98810;;;17.7;96.0
27358;BME280;14831;50.474;7.616;2023-08-21T04:11:49;98810;;;17.8;96.2
27358;BME280;14831;50.474;7.616;2023-08-21T04:16:49;98810;;;17.9;96.0
27358;BME280;14831;50.474;7.616;2023-08-21T04:21:49;98810;;;17.9;96.0
27358;BME280;14831;50.474;7.616;2023-08-21T04:26:49;98820;;;17.9;96.0
27358;BME280;14831;50.474;7.616;2023-08-21T04:31:49;98810;;;18.0;95.9
27358;BME280;14831;50.474;7.616;2023-08-21T04:36:49;98820;;;18.0;95.9
27358;BME280;14831;50.474;7.616;2023-08-21T04:41:49;98820;;;18.1;95.9
27358;BME280;14831;50.474;7.616;2023-08-21T04:46:49;98820;;;18.1;95.8
27358;BME280;14831;50.474;7.616;2023-08-21T04:51:49;98820;;;18.2;95.8
27358;BME280;14831;50.474;7.616;2023-08-21T04:56:49;98820;;;18.3;95.7
27358;BME280;14831;50.474;7.616;2023-08-21T05:01:49;98830;;;18.4;95.8
27358;BME280;14831;50.474;7.616;2023-08-21T05:06:49;98840;;;18.5;95.4
27358;BME280;14831;50.474;7.616;2023-08-21T05:11:49;98830;;;18.6;94.8
27358;BME280;14831;50.474;7.616;2023-08-21T05:16:49;98840;;;18.8;94.9
27358;BME280;14831;50.474;7.616;2023-08-21T05:21:49;98840;;;18.8;94.4
27358;BME280;14831;50.474;7.616;2023-08-21T05:26:49;98840;;;19.0;94.5
27358;BME280;14831;50.474;7.616;2023-08-21T05:31:49;98850;;;19.1;94.1
27358;BME280;14831;50.474;7.616;2023-08-21T05:36:49;98840;;;19.3;93.9
27358;BME280;14831;50.474;7.616;2023-08-21T05:41:49;98840;;;19.6;93.8
27358;BME280;14831;50.474;7.616;2023-08-21T05:46:49;98850;;;19.8;93.1
27358;BME280;14831;50.474;7.616;2023-08-21T05:51:49;98850;;;20.0;92.4
27358;BME280;14831;50.474;7.616;2023-08-21T05:56:49;98840;;;20.2;91.3
27358;BME280;14831;50.474;7.616;2023-08-21T06:01:49;98850;;;20.4;90.0
27358;BME280;14831;50.474;7.616;2023-08-21T06:06:49;98850;;;20.5;88.4
27358;BME280;14831;50.474;7.616;2023-08-21T06:11:49;98850;;;20.2;89.6
27358;BME280;14831;50.474;7.616;2023-08-21T06:16:49;98850;;;20.5;88.2
27358;BME280;14831;50.474;7.616;2023-08-21T06:21:49;98850;;;21.0;86.3
27358;BME280;14831;50.474;7.616;2023-08-21T06:26:50;98850;;;21.2;86.0
27358;BME280;14831;50.474;7.616;2023-08-21T06:31:49;98860;;;21.3;84.8
27358;BME280;14831;50.474;7.616;2023-08-21T06:36:49;98850;;;22.4;80.5
27358;BME280;14831;50.474;7.616;2023-08-21T06:41:49;98870;;;22.0;83.0
27358;BME280;14831;50.474;7.616;2023-08-21T06:46:49;98870;;;22.7;78.5
27358;BME280;14831;50.474;7.616;2023-08-21T06:51:52;98870;;;22.5;80.3
27358;BME280;14831;50.474;7.616;2023-08-21T06:56:49;98870;;;22.4;81.0
27358;BME280;14831;50.474;7.616;2023-08-21T07:01:49;98870;;;23.1;79.6
27358;BME280;14831;50.474;7.616;2023-08-21T07:11:49;98870;;;23.1;79.5
27358;BME280;14831;50.474;7.616;2023-08-21T07:16:49;98880;;;23.0;79.3
27358;BME280;14831;50.474;7.616;2023-08-21T07:21:49;98880;;;22.9;78.6
27358;BME280;14831;50.474;7.616;2023-08-21T07:26:49;98880;;;23.4;76.8
27358;BME280;14831;50.474;7.616;2023-08-21T07:31:49;98900;;;22.9;77.6
27358;BME280;14831;50.474;7.616;2023-08-21T07:36:49;98890;;;23.3;78.6
27358;BME280;14831;50.474;7.616;2023-08-21T07:41:49;98880;;;23.8;75.8
27358;BME280;14831;50.474;7.616;2023-08-21T08:34:16;98880;;;25.8;67.9
27358;BME280;14831;50.474;7.616;2023-08-21T08:39:16;98890;;;25.7;71.8
27358;BME280;14831;50.474;7.616;2023-08-21T08:44:19;98890;;;26.4;65.2
27358;BME280;14831;50.474;7.616;2023-08-21T08:49:16;98890;;;27.3;63.6
27358;BME280;14831;50.474;7.616;2023-08-21T08:54:17;98890;;;28.3;60.8
27358;BME280;14831;50.474;7.616;2023-08-21T08:59:16;98890;;;28.4;60.1
27358;BME280;14831;50.474;7.616;2023-08-21T09:04:16;98890;;;26.7;66.5
27358;BME280;14831;50.474;7.616;2023-08-21T09:09:16;98890;;;27.0;65.1
27358;BME280;14831;50.474;7.616;2023-08-21T09:14:16;98890;;;27.3;63.1
27358;BME280;14831;50.474;7.616;2023-08-21T09:19:20;98890;;;26.9;61.8
27358;BME280;14831;50.474;7.616;2023-08-21T09:24:16;98900;;;27.2;65.6
27358;BME280;14831;50.474;7.616;2023-08-21T09:29:16;98890;;;28.1;60.0
27358;BME280;14831;50.474;7.616;2023-08-21T09:34:16;98890;;;28.0;60.4
27358;BME280;14831;50.474;7.616;2023-08-21T09:39:16;98900;;;26.4;65.6
27358;BME280;14831;50.474;7.616;2023-08-21T09:44:16;98890;;;27.3;64.6
27358;BME280;14831;50.474;7.616;2023-08-21T09:49:17;98890;;;26.7;66.3
27358;BME280;14831;50.474;7.616;2023-08-21T09:54:16;98890;;;26.3;63.4
27358;BME280;14831;50.474;7.616;2023-08-21T09:59:16;98890;;;26.5;62.6
27358;BME280;14831;50.474;7.616;2023-08-21T10:04:17;98900;;;26.5;64.1
27358;BME280;14831;50.474;7.616;2023-08-21T10:09:16;98890;;;26.9;63.5
27358;BME280;14831;50.474;7.616;2023-08-21T10:14:16;98890;;;26.8;63.3
27358;BME280;14831;50.474;7.616;2023-08-21T10:19:16;98880;;;27.2;62.0
27358;BME280;14831;50.474;7.616;2023-08-21T10:24:33;98880;;;26.9;63.2
27358;BME280;14831;50.474;7.616;2023-08-21T10:29:16;98870;;;27.0;62.5
27358;BME280;14831;50.474;7.616;2023-08-21T10:34:16;98880;;;27.3;62.9
27358;BME280;14831;50.474;7.616;2023-08-21T10:39:17;98870;;;27.1;63.5
27358;BME280;14831;50.474;7.616;2023-08-21T10:44:16;98890;;;27.0;62.0
27358;BME280;14831;50.474;7.616;2023-08-21T10:49:16;98880;;;26.9;60.2
27358;BME280;14831;50.474;7.616;2023-08-21T10:54:17;98870;;;26.7;63.0
27358;BME280;14831;50.474;7.616;2023-08-21T10:59:16;98870;;;26.9;62.2
27358;BME280;14831;50.474;7.616;2023-08-21T11:04:16;98870;;;26.4;61.7
27358;BME280;14831;50.474;7.616;2023-08-21T11:09:16;98870;;;26.9;61.3
27358;BME280;14831;50.474;7.616;2023-08-21T11:14:16;98860;;;26.9;60.0
27358;BME280;14831;50.474;7.616;2023-08-21T11:19:16;98860;;;26.7;61.0
27358;BME280;14831;50.474;7.616;2023-08-21T11:24:16;98860;;;27.2;60.5
27358;BME280;14831;50.474;7.616;2023-08-21T11:29:16;98850;;;27.5;62.3
27358;BME280;14831;50.474;7.616;2023-08-21T11:34:18;98860;;;27.5;58.4
27358;BME280;14831;50.474;7.616;2023-08-21T11:39:16;98860;;;27.8;56.7
27358;BME280;14831;50.474;7.616;2023-08-21T11:44:16;98860;;;27.8;63.3
27358;BME280;14831;50.474;7.616;2023-08-21T11:49:16;98870;;;28.0;54.8
27358;BME280;14831;50.474;7.616;2023-08-21T11:54:17;98860;;;28.1;55.2
27358;BME280;14831;50.474;7.616;2023-08-21T11:59:21;98850;;;27.9;59.8
27358;BME280;14831;50.474;7.616;2023-08-21T12:04:16;98850;;;28.2;55.0
27358;BME280;14831;50.474;7.616;2023-08-21T12:09:16;98850;;;27.8;58.4
27358;BME280;14831;50.474;7.616;2023-08-21T12:14:16;98850;;;27.5;61.2
27358;BME280;14831;50.474;7.616;2023-08-21T12:19:16;98850;;;27.0;64.9
27358;BME280;14831;50.474;7.616;2023-08-21T12:24:16;98850;;;26.3;65.7
27358;BME280;14831;50.474;7.616;2023-08-21T12:29:16;98850;;;26.5;65.3
27358;BME280;14831;50.474;7.616;2023-08-21T12:34:16;98840;;;26.6;65.3
27358;BME280;14831;50.474;7.616;2023-08-21T12:39:16;98850;;;27.0;64.8
27358;BME280;14831;50.474;7.616;2023-08-21T12:44:16;98840;;;27.1;62.9
27358;BME280;14831;50.474;7.616;2023-08-21T12:49:16;98850;;;27.5;63.0
27358;BME280;14831;50.474;7.616;2023-08-21T12:54:16;98830;;;27.3;63.6
27358;BME280;14831;50.474;7.616;2023-08-21T12:59:16;98840;;;27.1;63.9
27358;BME280;14831;50.474;7.616;2023-08-21T13:04:16;98840;;;27.1;64.9
27358;BME280;14831;50.474;7.616;2023-08-21T13:09:16;98830;;;27.0;62.8
27358;BME280;14831;50.474;7.616;2023-08-21T13:14:16;98830;;;26.8;64.4
27358;BME280;14831;50.474;7.616;2023-08-21T13:19:16;98840;;;26.6;63.7
27358;BME280;14831;50.474;7.616;2023-08-21T13:24:16;98830;;;26.7;63.6
27358;BME280;14831;50.474;7.616;2023-08-21T13:29:16;98830;;;26.4;64.6
27358;BME280;14831;50.474;7.616;2023-08-21T13:34:16;98840;;;26.3;65.2
27358;BME280;14831;50.474;7.616;2023-08-21T13:39:16;98840;;;26.3;65.5
27358;BME280;14831;50.474;7.616;2023-08-21T13:44:16;98830;;;26.5;64.9
27358;BME280;14831;50.474;7.616;2023-08-21T13:49:16;98830;;;26.7;63.5
27358;BME280;14831;50.474;7.616;2023-08-21T13:54:16;98830;;;27.0;62.9
27358;BME280;14831;50.474;7.616;2023-08-21T13:59:17;98830;;;27.0;62.5
27358;BME280;14831;50.474;7.616;2023-08-21T14:04:16;98830;;;27.2;61.1
27358;BME280;14831;50.474;7.616;2023-08-21T14:09:16;98820;;;27.5;62.2
27358;BME280;14831;50.474;7.616;2023-08-21T14:14:16;98820;;;27.2;62.2
27358;BME280;14831;50.474;7.616;2023-08-21T14:19:16;98820;;;26.9;62.3
27358;BME280;14831;50.474;7.616;2023-08-21T14:24:16;98810;;;26.7;63.8
27358;BME280;14831;50.474;7.616;2023-08-21T14:29:16;98800;;;26.7;63.6
27358;BME280;14831;50.474;7.616;2023-08-21T14:34:16;98800;;;26.6;63.0
27358;BME280;14831;50.474;7.616;2023-08-21T14:39:16;98800;;;26.3;64.6
27358;BME280;14831;50.474;7.616;2023-08-21T14:44:16;98800;;;26.7;65.2
27358;BME280;14831;50.474;7.616;2023-08-21T14:49:16;98790;;;26.5;63.9
27358;BME280;14831;50.474;7.616;2023-08-21T14:54:16;98800;;;26.5;64.6
27358;BME280;14831;50.474;7.616;2023-08-21T14:59:16;98790;;;26.8;63.8
27358;BME280;14831;50.474;7.616;2023-08-21T15:04:16;98790;;;26.7;64.6
27358;BME280;14831;50.474;7.616;2023-08-21T15:09:16;98790;;;26.6;63.9
27358;BME280;14831;50.474;7.616;2023-08-21T15:14:16;98780;;;26.4;64.0
27358;BME280;14831;50.474;7.616;2023-08-21T15:19:16;98780;;;26.2;63.9
27358;BME280;14831;50.474;7.616;2023-08-21T15:24:16;98770;;;26.4;64.4
27358;BME280;14831;50.474;7.616;2023-08-21T15:29:16;98770;;;26.2;63.7
27358;BME280;14831;50.474;7.616;2023-08-21T15:34:16;98780;;;26.2;63.6
27358;BME280;14831;50.474;7.616;2023-08-21T15:39:17;98780;;;26.1;63.8
27358;BME280;14831;50.474;7.616;2023-08-21T15:44:16;98780;;;25.9;63.8
27358;BME280;14831;50.474;7.616;2023-08-21T15:49:16;98770;;;25.9;64.6
27358;BME280;14831;50.474;7.616;2023-08-21T15:54:18;98770;;;25.8;64.7
27358;BME280;14831;50.474;7.616;2023-08-21T15:59:16;98760;;;25.7;65.9
27358;BME280;14831;50.474;7.616;2023-08-21T16:04:17;98780;;;25.2;66.8
27358;BME280;14831;50.474;7.616;2023-08-21T16:09:17;98770;;;25.2;66.6
27358;BME280;14831;50.474;7.616;2023-08-21T16:14:16;98770;;;25.2;66.7
27358;BME280;14831;50.474;7.616;2023-08-21T16:19:16;98760;;;25.0;66.5
27358;BME280;14831;50.474;7.616;2023-08-21T16:24:18;98760;;;25.0;67.1
27358;BME280;14831;50.474;7.616;2023-08-21T16:29:16;98770;;;25.0;66.6
27358;BME280;14831;50.474;7.616;2023-08-21T16:34:16;98760;;;24.8;66.7
27358;BME280;14831;50.474;7.616;2023-08-21T16:39:16;98760;;;24.8;66.2
27358;BME280;14831;50.474;7.616;2023-08-21T16:44:16;98760;;;24.9;65.8
27358;BME280;14831;50.474;7.616;2023-08-21T16:49:16;98750;;;24.7;66.0
27358;BME280;14831;50.474;7.616;2023-08-21T16:54:16;98750;;;24.6;65.9
27358;BME280;14831;50.474;7.616;2023-08-21T16:59:16;98740;;;24.5;66.4
27358;BME280;14831;50.474;7.616;2023-08-21T17:04:16;98750;;;24.4;67.4
27358;BME280;14831;50.474;7.616;2023-08-21T17:09:16;98740;;;24.3;66.7
27358;BME280;14831;50.474;7.616;2023-08-21T17:14:16;98740;;;24.3;66.2
27358;BME280;14831;50.474;7.616;2023-08-21T17:19:16;98740;;;24.2;66.8
27358;BME280;14831;50.474;7.616;2023-08-21T17:24:16;98740;;;24.1;66.9
27358;BME280;14831;50.474;7.616;2023-08-21T17:29:16;98740;;;24.1;67.5
27358;BME280;14831;50.474;7.616;2023-08-21T17:34:16;98750;;;24.1;67.3
27358;BME280;14831;50.474;7.616;2023-08-21T17:39:16;98740;;;24.1;67.2
27358;BME280;14831;50.474;7.616;2023-08-21T17:44:16;98730;;;24.1;66.2
27358;BME280;14831;50.474;7.616;2023-08-21T17:49:17;98730;;;24.1;65.6
27358;BME280;14831;50.474;7.616;2023-08-21T17:54:16;98740;;;24.1;65.4
27358;BME280;14831;50.474;7.616;2023-08-21T17:59:16;98730;;;24.0;66.7
27358;BME280;14831;50.474;7.616;2023-08-21T18:04:16;98730;;;23.9;66.7
27358;BME280;14831;50.474;7.616;2023-08-21T18:09:16;98730;;;23.8;67.1
27358;BME280;14831;50.474;7.616;2023-08-21T18:14:16;98740;;;23.8;67.3
27358;BME280;14831;50.474;7.616;2023-08-21T18:19:16;98730;;;23.7;67.5
27358;BME280;14831;50.474;7.616;2023-08-21T18:24:16;98720;;;23.7;67.6
27358;BME280;14831;50.474;7.616;2023-08-21T18:29:16;98720;;;23.5;68.0
27358;BME280;14831;50.474;7.616;2023-08-21T18:34:16;98730;;;23.4;68.3
27358;BME280;14831;50.474;7.616;2023-08-21T18:39:16;98730;;;23.3;68.4
27358;BME280;14831;50.474;7.616;2023-08-21T18:44:16;98730;;;23.2;69.3
27358;BME280;14831;50.474;7.616;2023-08-21T18:49:16;98730;;;23.1;69.3
27358;BME280;14831;50.474;7.616;2023-08-21T18:54:16;98730;;;23.0;68.9
27358;BME280;14831;50.474;7.616;2023-08-21T18:59:16;98740;;;23.0;68.5
27358;BME280;14831;50.474;7.616;2023-08-21T19:04:16;98740;;;23.0;67.5
27358;BME280;14831;50.474;7.616;2023-08-21T19:09:16;98750;;;22.9;68.8
27358;BME280;14831;50.474;7.616;2023-08-21T19:14:16;98750;;;22.8;68.7
27358;BME280;14831;50.474;7.616;2023-08-21T19:19:16;98750;;;22.8;68.8
27358;BME280;14831;50.474;7.616;2023-08-21T19:24:16;98760;;;22.7;69.2
27358;BME280;14831;50.474;7.616;2023-08-21T19:29:16;98760;;;22.6;69.6
27358;BME280;14831;50.474;7.616;2023-08-21T19:34:16;98760;;;22.4;70.3
27358;BME280;14831;50.474;7.616;2023-08-21T19:39:16;98760;;;22.3;71.2
27358;BME280;14831;50.474;7.616;2023-08-21T19:44:16;98750;;;22.3;70.1
27358;BME280;14831;50.474;7.616;2023-08-21T19:49:16;98750;;;22.3;70.4
27358;BME280;14831;50.474;7.616;2023-08-21T19:54:16;98750;;;22.3;70.4
27358;BME280;14831;50.474;7.616;2023-08-21T19:59:16;98750;;;22.2;70.8
27358;BME280;14831;50.474;7.616;2023-08-21T20:04:17;98750;;;22.1;71.1
27358;BME280;14831;50.474;7.616;2023-08-21T20:09:16;98740;;;22.0;71.6
27358;BME280;14831;50.474;7.616;2023-08-21T20:14:16;98740;;;21.9;72.0
27358;BME280;14831;50.474;7.616;2023-08-21T20:19:16;98740;;;21.8;73.2
27358;BME280;14831;50.474;7.616;2023-08-21T20:24:16;98730;;;21.5;73.6
27358;BME280;14831;50.474;7.616;2023-08-21T20:29:16;98730;;;21.7;72.0
27358;BME280;14831;50.474;7.616;2023-08-21T20:34:16;98740;;;21.7;71.9
27358;BME280;14831;50.474;7.616;2023-08-21T20:39:16;98740;;;21.6;71.8
27358;BME280;14831;50.474;7.616;2023-08-21T20:44:16;98740;;;21.6;71.7
27358;BME280;14831;50.474;7.616;2023-08-21T20:49:16;98730;;;21.5;71.9
27358;BME280;14831;50.474;7.616;2023-08-21T20:54:16;98740;;;21.4;71.9
27358;BME280;14831;50.474;7.616;2023-08-21T20:59:16;98740;;;21.3;72.3
27358;BME280;14831;50.474;7.616;2023-08-21T21:04:16;98740;;;21.2;72.8
27358;BME280;14831;50.474;7.616;2023-08-21T21:09:16;98730;;;21.1;74.3
27358;BME280;14831;50.474;7.616;2023-08-21T21:14:17;98720;;;20.9;73.9
27358;BME280;14831;50.474;7.616;2023-08-21T21:19:16;98730;;;20.9;73.6
27358;BME280;14831;50.474;7.616;2023-08-21T21:24:16;98720;;;21.0;72.8
27358;BME280;14831;50.474;7.616;2023-08-21T21:29:16;98720;;;21.0;73.2
27358;BME280;14831;50.474;7.616;2023-08-21T21:34:16;98720;;;20.8;73.8
27358;BME280;14831;50.474;7.616;2023-08-21T21:39:16;98740;;;20.6;75.0
27358;BME280;14831;50.474;7.616;2023-08-21T21:44:16;98740;;;20.4;76.0
27358;BME280;14831;50.474;7.616;2023-08-21T21:49:16;98730;;;20.2;76.6
27358;BME280;14831;50.474;7.616;2023-08-21T21:54:16;98720;;;20.1;77.4
27358;BME280;14831;50.474;7.616;2023-08-21T21:59:16;98720;;;20.1;77.6
27358;BME280;14831;50.474;7.616;2023-08-21T22:04:16;98720;;;20.0;77.9
27358;BME280;14831;50.474;7.616;2023-08-21T22:09:16;98720;;;19.9;78.3
27358;BME280;14831;50.474;7.616;2023-08-21T22:14:16;98710;;;19.9;79.1
27358;BME280;14831;50.474;7.616;2023-08-21T22:19:16;98720;;;19.8;79.8
27358;BME280;14831;50.474;7.616;2023-08-21T22:24:16;98720;;;19.6;80.7
27358;BME280;14831;50.474;7.616;2023-08-21T22:29:16;98720;;;19.5;81.1
27358;BME280;14831;50.474;7.616;2023-08-21T22:34:16;98700;;;19.5;81.6
27358;BME280;14831;50.474;7.616;2023-08-21T22:39:16;98700;;;19.4;82.2
27358;BME280;14831;50.474;7.616;2023-08-21T22:44:16;98700;;;19.5;81.7
27358;BME280;14831;50.474;7.616;2023-08-21T22:49:16;98700;;;19.6;81.3
27358;BME280;14831;50.474;7.616;2023-08-21T22:54:16;98700;;;19.6;81.3
27358;BME280;14831;50.474;7.616;2023-08-21T22:59:16;98700;;;19.4;82.3
27358;BME280;14831;50.474;7.616;2023-08-21T23:04:16;98700;;;19.3;82.6
27358;BME280;14831;50.474;7.616;2023-08-21T23:09:16;98700;;;19.3;82.7
27358;BME280;14831;50.474;7.616;2023-08-21T23:14:16;98690;;;19.1;83.6
27358;BME280;14831;50.474;7.616;2023-08-21T23:19:16;98680;;;18.9;84.4
27358;BME280;14831;50.474;7.616;2023-08-21T23:24:16;98680;;;18.7;85.4
27358;BME280;14831;50.474;7.616;2023-08-21T23:29:16;98680;;;18.5;86.6
27358;BME280;14831;50.474;7.616;2023-08-21T23:34:16;98680;;;18.4;86.8
27358;BME280;14831;50.474;7.616;2023-08-21T23:39:16;98680;;;18.2;87.1
27358;BME280;14831;50.474;7.616;2023-08-21T23:44:16;98680;;;18.2;87.6
27358;BME280;14831;50.474;7.616;2023-08-21T23:49:16;98680;;;18.1;88.5
27358;BME280;14831;50.474;7.616;2023-08-21T23:54:16;98670;;;18.0;88.0
27358;BME280;14831;50.474;7.616;2023-08-21T23:59:16;98670;;;18.0;88.9
